Main page
METAR-TAF:

METAR-TAF

Airports :

Shaikh Zayed International Airport

Rahim Yar Khan, Pakistan

latitude: 28-23-02N, longitude: 70-16-47E, elevation: 83 m

METAR: missing

Time: 14:04 (09:04 UTC)

Forecast

The report was made 4 hours and 56 minutes ago, at 04:08 UTC
Forecast valid from 18 at 06 UTC to 18 at 24 UTC
Wind 10 kt from the Northeast
Visibility: 4000 m
Scattered clouds at a height of 12000 ft
smoke

TAF: OPRK 180408Z 1806/1824 05010KT 4000 FU SCT120 TX31/1810Z

Weather observations and forecasts of more than 4000 airports (METAR and TAF reports).

The available stations are represented by yellow and red dots on the map.

Hover mouse over dot to see the name of the station.

Then click to see weather observations and forecasts.

To change the map : click on the green buttons with a black cross to zoom in, on the green button with a dash to zoom out, or on the green arrows for adjacent maps.


METAR-TAF: